Time;durP1;ratioP1;P1;durP2;ratioP2;P2;SDS_P1;SDS_P2;PMS_P1;PMS_P2;Temp;Humidity;BMP_temperature;BMP_pressure;BME280_temperature;BME280_humidity;BME280_pressure;Samples;Min_cycle;Max_cycle;Signal;HPM_P1;HPM_P2
2021/07/30 00:01:36;;;;;;;4.17;3.40;;;15.60;99.90;;;;;;5102154;27;20474;-74
2021/07/30 00:04:03;;;;;;;3.40;3.00;;;15.50;99.90;;;;;;5114257;28;20478;-74
2021/07/30 00:06:30;;;;;;;4.03;3.20;;;15.50;99.90;;;;;;5113980;28;20449;-74
2021/07/30 00:08:56;;;;;;;4.53;3.90;;;15.50;99.90;;;;;;5114465;28;20408;-74
2021/07/30 00:11:23;;;;;;;4.47;3.50;;;15.50;99.90;;;;;;5096730;28;20457;-75
2021/07/30 00:13:51;;;;;;;5.77;3.73;;;15.50;99.90;;;;;;5111679;28;21700;-75
2021/07/30 00:16:18;;;;;;;3.67;3.30;;;15.50;99.90;;;;;;5107709;28;20430;-75
2021/07/30 00:18:45;;;;;;;4.47;4.07;;;15.50;99.90;;;;;;5080185;27;20429;-75
2021/07/30 00:21:12;;;;;;;4.63;3.40;;;15.40;99.90;;;;;;5097031;27;20444;-75
2021/07/30 00:23:39;;;;;;;4.10;3.67;;;15.40;99.90;;;;;;5092770;28;20486;-75
2021/07/30 00:26:06;;;;;;;5.23;3.50;;;15.40;99.90;;;;;;5098507;27;20456;-74
2021/07/30 00:28:33;;;;;;;4.30;3.80;;;15.40;99.90;;;;;;5110028;28;20430;-75
2021/07/30 00:31:02;;;;;;;6.77;4.50;;;15.40;99.90;;;;;;5109178;28;20530;-75
2021/07/30 00:33:29;;;;;;;5.33;3.70;;;15.40;99.90;;;;;;5109948;28;20474;-75
2021/07/30 00:35:56;;;;;;;5.13;3.53;;;15.40;99.90;;;;;;5093780;28;20988;-75
2021/07/30 00:38:23;;;;;;;5.90;4.30;;;15.40;99.90;;;;;;5105070;27;20450;-75
2021/07/30 00:40:50;;;;;;;5.80;3.70;;;15.40;99.90;;;;;;5110975;28;20440;-75
2021/07/30 00:43:18;;;;;;;3.80;3.50;;;15.40;99.90;;;;;;5109187;28;20482;-75
2021/07/30 00:45:45;;;;;;;4.10;3.37;;;15.40;99.90;;;;;;5101178;28;20537;-75
2021/07/30 00:48:14;;;;;;;7.07;3.80;;;15.40;99.90;;;;;;5073122;28;20431;-75
2021/07/30 00:50:42;;;;;;;6.23;3.77;;;15.50;99.90;;;;;;5098924;27;20476;-76
2021/07/30 00:53:09;;;;;;;4.80;3.60;;;15.50;99.90;;;;;;5123076;27;20477;-75
2021/07/30 00:55:37;;;;;;;4.00;3.60;;;15.50;99.90;;;;;;5122831;27;20459;-75
2021/07/30 00:58:04;;;;;;;3.93;3.50;;;15.50;99.90;;;;;;5107115;28;20442;-75
2021/07/30 01:00:31;;;;;;;3.50;3.10;;;15.60;99.90;;;;;;5102347;27;20449;-75
2021/07/30 01:03:00;;;;;;;5.20;3.40;;;15.60;99.90;;;;;;5103472;27;20478;-75
2021/07/30 01:05:29;;;;;;;5.27;3.37;;;15.60;99.90;;;;;;5109771;28;20431;-75
2021/07/30 01:07:57;;;;;;;4.10;3.53;;;15.60;99.90;;;;;;5103540;27;20811;-76
2021/07/30 01:10:24;;;;;;;3.73;3.30;;;15.60;99.90;;;;;;5116664;27;20450;-75
2021/07/30 01:12:51;;;;;;;4.33;3.20;;;15.60;99.90;;;;;;5106552;28;20443;-75
2021/07/30 01:15:18;;;;;;;3.77;3.47;;;15.60;99.90;;;;;;5110440;28;20446;-74
2021/07/30 01:17:45;;;;;;;3.17;2.87;;;15.60;99.90;;;;;;5100091;28;20937;-75
2021/07/30 01:20:12;;;;;;;4.50;3.77;;;15.60;99.90;;;;;;5096699;27;20443;-74
2021/07/30 01:22:50;;;;;;;4.20;3.37;;;15.60;99.90;;;;;;5103295;27;20911;-74
2021/07/30 01:25:18;;;;;;;5.53;3.83;;;15.50;99.90;;;;;;5107994;28;20488;-75
2021/07/30 01:27:45;;;;;;;3.73;3.40;;;15.60;99.90;;;;;;5101158;28;20519;-74
2021/07/30 01:30:13;;;;;;;5.03;3.50;;;15.60;99.90;;;;;;5099457;27;20503;-74
2021/07/30 01:32:40;;;;;;;4.37;3.93;;;15.50;99.90;;;;;;5111293;28;20454;-75
2021/07/30 01:35:08;;;;;;;4.63;3.80;;;15.50;99.90;;;;;;5111717;28;20449;-74
2021/07/30 01:37:35;;;;;;;4.83;3.50;;;15.50;99.90;;;;;;5104286;27;20931;-74
2021/07/30 01:40:05;;;;;;;5.33;3.77;;;15.50;99.90;;;;;;5106542;28;20469;-74
2021/07/30 01:42:32;;;;;;;4.20;3.80;;;15.40;99.90;;;;;;5103678;28;21006;-74
2021/07/30 01:44:59;;;;;;;4.13;3.50;;;15.40;99.90;;;;;;5132031;28;20437;-75
2021/07/30 01:47:27;;;;;;;5.33;3.53;;;15.40;99.90;;;;;;5125246;28;20924;-76
2021/07/30 01:49:54;;;;;;;4.13;3.40;;;15.40;99.90;;;;;;5090784;28;20534;-75
2021/07/30 01:52:21;;;;;;;6.17;4.00;;;15.40;99.90;;;;;;5107972;28;20454;-75
2021/07/30 01:54:48;;;;;;;5.43;3.90;;;15.40;99.90;;;;;;5096375;28;20465;-75
2021/07/30 01:57:18;;;;;;;4.07;3.50;;;15.40;99.90;;;;;;5097156;28;20451;-75
2021/07/30 01:59:45;;;;;;;5.50;3.20;;;15.40;99.90;;;;;;5090942;28;20526;-75
2021/07/30 02:02:12;;;;;;;3.67;3.00;;;15.40;99.90;;;;;;5099038;28;20474;-75
2021/07/30 02:04:39;;;;;;;5.40;3.40;;;15.50;99.90;;;;;;5109978;28;20486;-75
2021/07/30 02:07:06;;;;;;;3.53;3.23;;;15.50;99.90;;;;;;5111931;27;20822;-74
2021/07/30 02:09:33;;;;;;;6.43;3.73;;;15.40;99.90;;;;;;5110311;27;20442;-75
2021/07/30 02:12:00;;;;;;;4.30;3.30;;;15.40;99.90;;;;;;5118382;27;20832;-75
2021/07/30 02:14:27;;;;;;;5.80;3.33;;;15.40;99.90;;;;;;5116184;28;20800;-75
2021/07/30 02:16:56;;;;;;;4.27;3.73;;;15.50;99.90;;;;;;5111085;28;20446;-75
2021/07/30 02:19:24;;;;;;;3.37;3.07;;;15.50;99.90;;;;;;5111381;28;21894;-74
2021/07/30 02:21:52;;;;;;;4.03;3.30;;;15.50;99.90;;;;;;5097536;28;20786;-75
2021/07/30 02:24:20;;;;;;;4.00;3.40;;;15.50;99.90;;;;;;5109762;27;20514;-75
2021/07/30 02:26:47;;;;;;;5.70;3.23;;;15.50;99.90;;;;;;5090075;28;20450;-75
2021/07/30 02:29:14;;;;;;;3.70;2.93;;;15.50;99.90;;;;;;5117047;28;20436;-74
2021/07/30 02:31:42;;;;;;;3.77;3.37;;;15.40;99.90;;;;;;5113081;28;20436;-75
2021/07/30 02:34:10;;;;;;;3.57;3.27;;;15.40;99.90;;;;;;5103610;27;20487;-74
2021/07/30 02:36:37;;;;;;;3.10;2.80;;;15.50;99.90;;;;;;5110039;28;20441;-74
2021/07/30 02:39:04;;;;;;;4.87;3.77;;;15.50;99.90;;;;;;5098492;27;20923;-74
2021/07/30 02:41:32;;;;;;;4.20;3.80;;;15.40;99.90;;;;;;5085534;28;20490;-75
2021/07/30 02:43:59;;;;;;;4.53;3.00;;;15.30;99.90;;;;;;5089264;28;20482;-75
2021/07/30 02:46:26;;;;;;;7.00;3.70;;;15.30;99.90;;;;;;5089135;28;21337;-74
2021/07/30 02:48:54;;;;;;;4.00;3.40;;;15.30;99.90;;;;;;5090560;28;20427;-75
2021/07/30 02:51:21;;;;;;;5.40;3.23;;;15.30;99.90;;;;;;5085195;28;20457;-75
2021/07/30 02:53:48;;;;;;;4.80;3.40;;;15.20;99.90;;;;;;5094475;28;20443;-74
2021/07/30 02:56:15;;;;;;;4.47;3.30;;;15.20;99.90;;;;;;5094320;28;20804;-75
2021/07/30 02:58:42;;;;;;;4.67;3.47;;;15.10;99.90;;;;;;5090998;28;20458;-75
2021/07/30 03:01:08;;;;;;;4.63;3.40;;;15.20;99.90;;;;;;5096339;28;20431;-75
2021/07/30 03:03:36;;;;;;;4.50;3.50;;;15.10;99.90;;;;;;5079607;28;20478;-75
2021/07/30 03:06:04;;;;;;;4.00;3.20;;;15.10;99.90;;;;;;5095684;28;20446;-75
2021/07/30 03:08:31;;;;;;;3.80;3.40;;;15.10;99.90;;;;;;5093617;28;20455;-75
2021/07/30 03:10:58;;;;;;;4.57;3.50;;;15.10;99.90;;;;;;5084888;28;20451;-74
2021/07/30 03:13:25;;;;;;;5.23;3.57;;;15.10;99.90;;;;;;5063532;28;20487;-74
2021/07/30 03:15:54;;;;;;;4.30;3.90;;;15.10;99.90;;;;;;5100904;28;20461;-74
2021/07/30 03:18:21;;;;;;;4.80;3.90;;;15.00;99.90;;;;;;5091489;28;20465;-75
2021/07/30 03:20:48;;;;;;;4.67;3.60;;;15.00;99.90;;;;;;5081915;28;20440;-75
2021/07/30 03:23:16;;;;;;;5.03;3.70;;;15.00;99.90;;;;;;5088850;28;20483;-75
2021/07/30 03:25:43;;;;;;;4.67;3.73;;;14.90;99.90;;;;;;5086400;28;20457;-75
2021/07/30 03:28:10;;;;;;;5.10;4.20;;;14.90;99.90;;;;;;5075835;28;20447;-75
2021/07/30 03:30:37;;;;;;;5.50;4.50;;;14.90;99.90;;;;;;5074925;28;20441;-74
2021/07/30 03:33:04;;;;;;;5.60;4.60;;;14.80;99.90;;;;;;5087562;28;20840;-74
2021/07/30 03:35:31;;;;;;;8.70;4.30;;;14.80;99.90;;;;;;5089481;28;20416;-76
2021/07/30 03:37:58;;;;;;;4.87;3.70;;;14.80;99.90;;;;;;5086531;28;20462;-74
2021/07/30 03:40:27;;;;;;;5.87;4.27;;;14.80;99.90;;;;;;5093331;28;20469;-75
2021/07/30 03:42:54;;;;;;;4.50;3.63;;;14.80;99.90;;;;;;5098668;28;20471;-76
2021/07/30 03:45:21;;;;;;;5.00;3.97;;;14.80;99.90;;;;;;5102367;27;20485;-74
2021/07/30 03:47:48;;;;;;;7.27;4.00;;;14.70;99.90;;;;;;5091863;27;21040;-74
2021/07/30 03:50:15;;;;;;;6.30;4.07;;;14.70;99.90;;;;;;5110119;28;20433;-74
2021/07/30 03:52:42;;;;;;;5.43;3.80;;;14.70;99.90;;;;;;5113297;28;20468;-74
2021/07/30 03:55:09;;;;;;;4.33;3.97;;;14.70;99.90;;;;;;5103430;28;20863;-75
2021/07/30 03:57:38;;;;;;;5.93;4.30;;;14.60;99.90;;;;;;5092742;28;20439;-75
2021/07/30 04:00:05;;;;;;;5.10;4.20;;;14.60;99.90;;;;;;5109489;28;20473;-75
2021/07/30 04:02:32;;;;;;;4.77;4.10;;;14.60;99.90;;;;;;5109299;28;20461;-75
2021/07/30 04:04:59;;;;;;;5.77;4.10;;;14.60;99.90;;;;;;5106277;27;20481;-75
2021/07/30 04:07:26;;;;;;;6.63;4.53;;;14.60;99.90;;;;;;5105553;27;20461;-75
2021/07/30 04:09:54;;;;;;;4.97;4.57;;;14.60;99.90;;;;;;5110431;28;20454;-74
2021/07/30 04:12:21;;;;;;;6.27;3.90;;;14.60;99.90;;;;;;5113824;28;20518;-75
2021/07/30 04:14:49;;;;;;;5.83;4.33;;;14.50;99.90;;;;;;5113371;28;20450;-75
2021/07/30 04:17:16;;;;;;;4.93;4.43;;;14.50;99.90;;;;;;5109003;27;20454;-75
2021/07/30 04:19:44;;;;;;;5.37;4.57;;;14.50;99.90;;;;;;5113896;28;20435;-74
2021/07/30 04:22:11;;;;;;;8.17;5.40;;;14.60;99.90;;;;;;5110318;28;21090;-74
2021/07/30 04:24:38;;;;;;;6.03;4.60;;;14.50;99.90;;;;;;5089631;28;20486;-75
2021/07/30 04:27:06;;;;;;;5.07;4.27;;;14.50;99.90;;;;;;5084859;28;20461;-75
2021/07/30 04:29:38;;;;;;;5.57;4.53;;;14.50;99.90;;;;;;5112310;28;20448;-74
2021/07/30 04:32:08;;;;;;;9.27;5.03;;;14.50;99.90;;;;;;5111274;28;20477;-74
2021/07/30 04:34:35;;;;;;;6.50;4.50;;;14.60;99.90;;;;;;5108811;28;21211;-75
2021/07/30 04:37:02;;;;;;;8.13;4.00;;;14.60;99.90;;;;;;5102866;28;20931;-74
2021/07/30 04:39:28;;;;;;;4.53;4.07;;;14.60;99.90;;;;;;5104146;28;20924;-74
2021/07/30 04:41:55;;;;;;;5.47;4.23;;;14.60;99.90;;;;;;5094410;28;20463;-75
2021/07/30 04:44:22;;;;;;;5.93;4.43;;;14.60;99.90;;;;;;5102888;27;20508;-75
2021/07/30 04:46:49;;;;;;;6.10;5.17;;;14.60;99.90;;;;;;5106094;28;20565;-76
2021/07/30 04:49:18;;;;;;;11.83;6.07;;;14.60;99.90;;;;;;5082979;28;20457;-75
2021/07/30 04:51:44;;;;;;;8.80;4.37;;;14.60;99.90;;;;;;5108770;28;20480;-75
2021/07/30 04:54:11;;;;;;;6.70;5.20;;;14.60;99.90;;;;;;5112662;28;20780;-74
2021/07/30 04:56:38;;;;;;;5.07;4.57;;;14.70;99.90;;;;;;5111501;28;20446;-75
2021/07/30 04:59:05;;;;;;;8.23;5.30;;;14.70;99.90;;;;;;5097055;27;20480;-74
2021/07/30 05:01:33;;;;;;;6.60;5.53;;;14.80;99.90;;;;;;5099098;27;20513;-75
2021/07/30 05:03:59;;;;;;;8.03;5.50;;;14.80;99.90;;;;;;5108910;28;20473;-74
2021/07/30 05:06:27;;;;;;;6.37;5.03;;;14.80;99.90;;;;;;5105471;28;20975;-75
2021/07/30 05:08:54;;;;;;;5.03;4.57;;;14.90;99.90;;;;;;5108077;27;20457;-75
2021/07/30 05:11:21;;;;;;;7.23;5.17;;;14.90;99.90;;;;;;5112279;28;20434;-74
2021/07/30 05:13:48;;;;;;;7.27;4.80;;;15.00;99.90;;;;;;5103043;28;21282;-74
2021/07/30 05:16:15;;;;;;;5.27;4.77;;;15.10;99.90;;;;;;5107175;28;20413;-74
2021/07/30 05:18:42;;;;;;;5.40;4.13;;;15.10;99.90;;;;;;5108841;28;20442;-75
2021/07/30 05:21:12;;;;;;;8.63;4.67;;;15.20;99.90;;;;;;5101458;27;20453;-74
2021/07/30 05:23:41;;;;;;;6.10;4.83;;;15.20;99.90;;;;;;5084200;27;20457;-75
2021/07/30 05:26:08;;;;;;;5.80;4.33;;;15.30;99.90;;;;;;5096034;28;20450;-75
2021/07/30 05:28:35;;;;;;;6.57;4.40;;;15.30;99.90;;;;;;5083033;28;20461;-74
2021/07/30 05:31:03;;;;;;;5.80;4.83;;;15.40;99.90;;;;;;5107471;27;20430;-72
2021/07/30 05:33:30;;;;;;;6.73;4.70;;;15.40;99.90;;;;;;5091619;28;20544;-75
2021/07/30 05:35:58;;;;;;;7.00;4.33;;;15.40;99.90;;;;;;5077460;28;20431;-74
2021/07/30 05:38:25;;;;;;;5.43;4.60;;;15.50;99.90;;;;;;5102590;28;20456;-74
2021/07/30 05:40:53;;;;;;;6.57;5.00;;;15.50;99.90;;;;;;5092722;28;20805;-74
2021/07/30 05:43:20;;;;;;;3.97;3.50;;;15.60;99.90;;;;;;5095978;28;20457;-73
2021/07/30 05:45:47;;;;;;;5.13;4.43;;;15.70;99.90;;;;;;5106616;28;20488;-74
2021/07/30 05:48:14;;;;;;;4.83;3.77;;;15.80;99.90;;;;;;5109696;28;20415;-74
2021/07/30 05:50:41;;;;;;;7.60;4.27;;;15.90;99.90;;;;;;5108728;28;20432;-74
2021/07/30 05:53:08;;;;;;;4.43;3.70;;;16.10;99.90;;;;;;5101828;28;20454;-74
2021/07/30 05:55:37;;;;;;;7.07;3.90;;;16.40;99.90;;;;;;5106439;28;20466;-74
2021/07/30 05:58:06;;;;;;;4.80;4.07;;;16.70;99.90;;;;;;5106495;28;20438;-76
2021/07/30 06:00:32;;;;;;;6.33;4.30;;;17.10;99.90;;;;;;5088524;28;20438;-74
2021/07/30 06:02:59;;;;;;;6.10;4.77;;;17.30;99.90;;;;;;5101310;28;20459;-75
2021/07/30 06:05:26;;;;;;;7.40;3.93;;;17.60;99.90;;;;;;5090487;28;20498;-74
2021/07/30 06:07:56;;;;;;;4.63;3.70;;;17.70;99.90;;;;;;5096461;28;20947;-75
2021/07/30 06:10:23;;;;;;;6.20;4.30;;;17.90;99.90;;;;;;5104062;28;20458;-75
2021/07/30 06:12:50;;;;;;;6.73;4.20;;;18.10;99.90;;;;;;5106625;28;20517;-74
2021/07/30 06:15:38;;;;;;;5.63;4.03;;;18.40;99.90;;;;;;5056396;28;20446;-74
2021/07/30 06:18:05;;;;;;;8.73;3.23;;;18.70;99.90;;;;;;5080498;28;20452;-74
2021/07/30 06:20:32;;;;;;;4.70;3.53;;;18.90;99.90;;;;;;5067993;28;20452;-74
2021/07/30 06:23:00;;;;;;;4.33;3.57;;;19.10;99.90;;;;;;5061791;28;20468;-74
2021/07/30 06:25:27;;;;;;;3.40;3.00;;;19.30;99.90;;;;;;5057868;28;20472;-75
2021/07/30 06:27:54;;;;;;;4.37;3.17;;;19.40;99.90;;;;;;5050665;28;20433;-76
2021/07/30 06:30:21;;;;;;;5.47;3.47;;;19.60;99.90;;;;;;5061163;28;20464;-78
2021/07/30 06:32:49;;;;;;;4.07;3.37;;;19.60;99.90;;;;;;5063966;28;20473;-76
2021/07/30 06:35:16;;;;;;;4.20;3.33;;;19.70;99.90;;;;;;5107550;28;20469;-75
2021/07/30 06:37:44;;;;;;;6.73;3.13;;;19.90;99.90;;;;;;5110655;28;20427;-81
2021/07/30 06:40:11;;;;;;;3.37;3.07;;;20.00;99.90;;;;;;5084683;28;20443;-81
2021/07/30 06:42:39;;;;;;;4.70;3.10;;;20.10;99.90;;;;;;5091243;28;20478;-75
2021/07/30 06:45:08;;;;;;;5.23;2.80;;;20.20;99.90;;;;;;5080048;28;20490;-75
2021/07/30 06:47:35;;;;;;;4.47;3.23;;;20.30;99.90;;;;;;5083804;28;20442;-74
2021/07/30 06:50:03;;;;;;;5.27;3.40;;;20.40;99.90;;;;;;5060738;28;20967;-74
2021/07/30 06:52:30;;;;;;;3.10;2.80;;;20.50;99.90;;;;;;5103701;28;20477;-75
2021/07/30 06:54:58;;;;;;;3.13;2.83;;;20.70;99.90;;;;;;5108009;28;20535;-74
2021/07/30 06:57:24;;;;;;;3.97;2.97;;;20.80;99.90;;;;;;5091787;27;20815;-74
2021/07/30 06:59:51;;;;;;;6.77;3.20;;;20.90;99.90;;;;;;5104364;27;20932;-75
2021/07/30 07:02:18;;;;;;;3.07;2.47;;;21.00;99.90;;;;;;5119217;27;20461;-77
2021/07/30 07:04:45;;;;;;;4.47;2.90;;;21.10;99.90;;;;;;5095910;28;20470;-75
2021/07/30 07:07:13;;;;;;;3.83;2.70;;;21.20;99.90;;;;;;5105266;27;20938;-75
2021/07/30 07:09:40;;;;;;;2.57;2.37;;;21.30;99.90;;;;;;5098882;27;20457;-75
2021/07/30 07:12:08;;;;;;;4.23;2.60;;;21.50;99.90;;;;;;5102004;27;20458;-77
2021/07/30 07:14:35;;;;;;;5.90;2.60;;;21.60;99.90;;;;;;5101799;27;20467;-73
2021/07/30 07:17:02;;;;;;;4.27;3.07;;;21.80;99.90;;;;;;5099427;28;20432;-73
2021/07/30 07:19:29;;;;;;;4.20;2.83;;;22.00;99.90;;;;;;5094501;27;21208;-73
2021/07/30 07:21:55;;;;;;;12.97;2.90;;;22.10;99.90;;;;;;5105460;27;20552;-73
2021/07/30 07:24:24;;;;;;;5.83;2.80;;;22.30;99.90;;;;;;5106183;28;20441;-74
2021/07/30 07:26:50;;;;;;;6.70;2.70;;;22.40;99.90;;;;;;5094465;27;20462;-74
2021/07/30 07:29:17;;;;;;;3.27;2.70;;;22.60;99.90;;;;;;5098231;27;20466;-75
2021/07/30 07:31:46;;;;;;;2.87;2.17;;;22.90;99.90;;;;;;5107139;27;20489;-74
2021/07/30 07:34:13;;;;;;;4.13;2.40;;;23.00;99.90;;;;;;5105795;28;20454;-75
2021/07/30 07:36:40;;;;;;;3.17;2.10;;;23.20;99.90;;;;;;5086408;28;20454;-75
2021/07/30 07:39:07;;;;;;;4.20;2.20;;;23.30;99.90;;;;;;5107836;28;20449;-75
2021/07/30 07:41:36;;;;;;;3.90;2.60;;;23.40;99.90;;;;;;5107554;28;21099;-74
2021/07/30 07:44:03;;;;;;;2.73;2.40;;;23.60;99.90;;;;;;5104667;27;20454;-75
2021/07/30 07:46:30;;;;;;;2.60;2.40;;;23.60;99.90;;;;;;5094540;28;20919;-74
2021/07/30 07:48:57;;;;;;;5.20;2.37;;;23.80;99.90;;;;;;5105860;27;20460;-74
2021/07/30 07:51:24;;;;;;;2.80;1.90;;;23.90;99.90;;;;;;5109680;28;20430;-75
2021/07/30 07:53:50;;;;;;;3.17;2.40;;;24.10;99.90;;;;;;5111309;28;20437;-73
2021/07/30 07:56:17;;;;;;;4.53;2.17;;;24.20;99.90;;;;;;5098552;27;20456;-74
2021/07/30 07:58:46;;;;;;;4.63;2.30;;;24.30;99.90;;;;;;5110130;27;20451;-74
2021/07/30 08:01:15;;;;;;;4.77;2.40;;;24.50;99.90;;;;;;5113384;28;20895;-73
2021/07/30 08:03:44;;;;;;;2.63;2.30;;;24.60;99.90;;;;;;5104081;28;20476;-73
2021/07/30 08:06:16;;;;;;;2.90;2.40;;;24.70;99.90;;;;;;5101236;27;20478;-73
2021/07/30 08:08:43;;;;;;;3.83;2.40;;;24.70;99.90;;;;;;5113150;28;20447;-74
2021/07/30 08:11:10;;;;;;;4.13;2.13;;;24.70;99.90;;;;;;5100887;28;20450;-74
2021/07/30 08:13:36;;;;;;;3.10;2.10;;;24.70;99.90;;;;;;5112665;28;20529;-74
2021/07/30 08:16:05;;;;;;;4.23;2.27;;;24.70;99.90;;;;;;5113757;28;20443;-73
2021/07/30 08:18:32;;;;;;;3.83;2.50;;;24.70;99.90;;;;;;5106348;27;20462;-73
2021/07/30 08:21:00;;;;;;;2.37;2.17;;;24.70;99.90;;;;;;5110280;28;20473;-73
2021/07/30 08:23:27;;;;;;;4.40;2.50;;;24.70;99.90;;;;;;5106404;27;20539;-73
2021/07/30 08:25:54;;;;;;;4.07;2.30;;;24.70;99.90;;;;;;5097257;27;20481;-73
2021/07/30 08:28:21;;;;;;;3.13;2.30;;;24.70;99.90;;;;;;5094507;28;20450;-72
2021/07/30 08:30:48;;;;;;;2.10;1.80;;;24.70;99.90;;;;;;5094303;28;20445;-73
2021/07/30 08:33:17;;;;;;;2.80;2.00;;;24.60;99.90;;;;;;5099710;28;20479;-73
2021/07/30 08:35:44;;;;;;;2.30;1.97;;;24.60;99.90;;;;;;5103233;28;20447;-73
2021/07/30 08:38:11;;;;;;;2.90;1.80;;;24.70;99.90;;;;;;5102788;27;20447;-73
2021/07/30 08:40:39;;;;;;;5.23;2.33;;;24.70;99.90;;;;;;5120247;27;20442;-74
2021/07/30 08:43:06;;;;;;;4.53;2.23;;;24.70;99.90;;;;;;5087251;27;20478;-73
2021/07/30 08:45:33;;;;;;;3.87;2.20;;;24.60;99.90;;;;;;5105162;27;20479;-74
2021/07/30 08:48:01;;;;;;;4.10;2.50;;;24.50;99.90;;;;;;5120206;27;20442;-74
2021/07/30 08:50:31;;;;;;;5.80;2.40;;;24.50;99.90;;;;;;5103907;27;20453;-73
2021/07/30 08:53:03;;;;;;;3.83;2.40;;;24.50;99.90;;;;;;5107328;27;20962;-74
2021/07/30 08:55:31;;;;;;;2.73;2.10;;;24.50;99.90;;;;;;5107421;28;20442;-73
2021/07/30 08:57:58;;;;;;;6.60;2.53;;;24.50;99.90;;;;;;5108347;28;20819;-74
2021/07/30 09:00:25;;;;;;;2.93;2.63;;;24.40;99.90;;;;;;5090415;28;20443;-74
2021/07/30 09:02:55;;;;;;;4.00;2.20;;;24.40;99.90;;;;;;5103410;27;20467;-74
2021/07/30 09:05:27;;;;;;;2.67;2.37;;;24.40;99.90;;;;;;5077473;28;20854;-73
2021/07/30 09:07:55;;;;;;;3.83;2.47;;;24.40;99.90;;;;;;5109891;28;20801;-74
2021/07/30 09:10:31;;;;;;;4.43;2.60;;;24.40;99.90;;;;;;5110495;27;20454;-73
2021/07/30 09:13:13;;;;;;;2.60;2.40;;;24.40;99.90;;;;;;5096684;27;20541;-73
2021/07/30 09:15:41;;;;;;;3.77;2.77;;;24.30;99.90;;;;;;5098295;27;20450;-73
2021/07/30 09:18:08;;;;;;;3.87;2.77;;;24.30;99.90;;;;;;5102841;28;21317;-73
2021/07/30 09:20:35;;;;;;;3.53;2.60;;;24.30;99.90;;;;;;5097685;28;20848;-74
2021/07/30 09:23:03;;;;;;;5.83;2.90;;;24.30;99.90;;;;;;5099793;27;20468;-74
2021/07/30 09:25:33;;;;;;;3.03;2.73;;;24.30;99.90;;;;;;5099963;27;20478;-73
2021/07/30 09:28:03;;;;;;;2.87;2.47;;;24.30;99.90;;;;;;5061016;28;20931;-72
2021/07/30 09:30:30;;;;;;;3.10;2.47;;;24.40;99.90;;;;;;5081888;28;20454;-73
2021/07/30 09:32:57;;;;;;;4.67;2.80;;;24.50;99.90;;;;;;5093391;28;20523;-76
2021/07/30 09:35:24;;;;;;;4.23;2.90;;;24.50;99.90;;;;;;5101340;28;20446;-72
2021/07/30 09:38:21;;;;;;;3.90;2.70;;;24.50;99.90;;;;;;5097366;28;20454;-73
2021/07/30 09:40:53;;;;;;;3.33;2.83;;;24.60;99.90;;;;;;5079443;28;20472;-74
2021/07/30 09:43:22;;;;;;;2.77;2.53;;;24.60;99.90;;;;;;5112005;27;20513;-73
2021/07/30 09:45:51;;;;;;;5.80;2.70;;;24.60;99.90;;;;;;5073470;28;20519;-73
2021/07/30 09:48:19;;;;;;;2.87;2.40;;;24.70;99.90;;;;;;5103074;28;20496;-73
2021/07/30 09:50:47;;;;;;;3.00;2.70;;;24.70;99.90;;;;;;5108905;28;20628;-77
2021/07/30 09:53:15;;;;;;;4.70;3.00;;;24.70;99.90;;;;;;5106432;28;20478;-72
2021/07/30 09:55:44;;;;;;;2.83;2.63;;;24.70;99.90;;;;;;5103685;28;21073;-74
2021/07/30 09:58:13;;;;;;;2.97;2.60;;;24.70;99.90;;;;;;5097556;28;21258;-73
2021/07/30 10:00:41;;;;;;;3.27;2.43;;;24.70;99.90;;;;;;5096023;28;20454;-74
2021/07/30 10:03:10;;;;;;;3.93;2.57;;;24.50;99.90;;;;;;5094273;28;20467;-74
2021/07/30 10:05:38;;;;;;;3.80;2.67;;;24.50;99.90;;;;;;5088072;28;20483;-74
2021/07/30 10:08:06;;;;;;;2.87;2.40;;;24.40;99.90;;;;;;5083445;28;20487;-73
2021/07/30 10:10:33;;;;;;;3.17;2.60;;;24.30;99.90;;;;;;5091234;28;20601;-73
2021/07/30 10:13:05;;;;;;;3.80;2.93;;;24.30;99.90;;;;;;5103373;28;20953;-73
2021/07/30 10:15:34;;;;;;;3.60;2.70;;;24.20;99.90;;;;;;5102724;28;20446;-73
2021/07/30 10:18:05;;;;;;;3.80;2.90;;;24.10;99.90;;;;;;5081667;28;20446;-73
2021/07/30 10:20:34;;;;;;;3.03;2.67;;;24.10;99.90;;;;;;5098049;28;20443;-75
2021/07/30 10:23:05;;;;;;;2.73;2.53;;;24.10;99.90;;;;;;5094472;28;21261;-74
2021/07/30 10:25:34;;;;;;;3.03;2.77;;;24.10;99.90;;;;;;5116615;27;20477;-74
2021/07/30 10:28:05;;;;;;;3.10;2.80;;;24.10;99.90;;;;;;5088564;28;20434;-74
2021/07/30 10:30:52;;;;;;;3.10;2.80;;;24.10;99.90;;;;;;5099896;28;20542;-74
2021/07/30 10:33:46;;;;;;;5.53;3.00;;;24.10;99.90;;;;;;5076717;27;20473;-73
2021/07/30 10:36:32;;;;;;;3.50;3.20;;;24.10;99.90;;;;;;5087897;28;20450;-74
2021/07/30 10:39:08;;;;;;;3.77;3.10;;;24.10;99.90;;;;;;5088776;27;20455;-73
2021/07/30 10:41:36;;;;;;;2.50;2.30;;;24.00;99.90;;;;;;5068671;27;20483;-73
2021/07/30 10:44:06;;;;;;;3.50;3.00;;;24.00;99.90;;;;;;5120114;27;20773;-74
2021/07/30 10:46:34;;;;;;;3.57;2.60;;;24.00;99.90;;;;;;5113738;28;20515;-73
2021/07/30 10:49:02;;;;;;;3.50;2.90;;;24.10;99.90;;;;;;5107356;27;20458;-76
2021/07/30 10:51:31;;;;;;;3.13;2.83;;;24.00;99.90;;;;;;5104813;28;20464;-74
2021/07/30 10:53:59;;;;;;;3.80;3.17;;;24.00;99.90;;;;;;5095434;27;20988;-74
2021/07/30 10:56:41;;;;;;;4.57;2.90;;;23.90;99.90;;;;;;5091442;28;20443;-74
2021/07/30 10:59:08;;;;;;;3.37;3.07;;;24.00;99.90;;;;;;5086956;28;20530;-75
2021/07/30 11:01:55;;;;;;;3.80;2.80;;;24.00;99.90;;;;;;5101066;28;20467;-74
2021/07/30 11:04:23;;;;;;;4.47;2.60;;;24.00;99.90;;;;;;5094989;27;20450;-73
2021/07/30 11:06:55;;;;;;;3.07;2.77;;;24.00;99.90;;;;;;5113137;27;20820;-73
2021/07/30 11:09:27;;;;;;;3.63;3.30;;;24.00;99.90;;;;;;5116213;28;20445;-75
2021/07/30 11:11:56;;;;;;;3.13;2.83;;;24.10;99.90;;;;;;5110079;28;20562;-73
2021/07/30 11:14:24;;;;;;;3.63;2.87;;;24.00;99.90;;;;;;5072732;28;20439;-75
2021/07/30 11:16:55;;;;;;;4.80;3.60;;;24.10;99.90;;;;;;5098163;28;20451;-72
2021/07/30 11:19:23;;;;;;;3.33;3.03;;;24.00;99.90;;;;;;5113206;27;20435;-74
2021/07/30 11:21:50;;;;;;;2.97;2.67;;;23.90;99.90;;;;;;5092035;28;20451;-72
2021/07/30 11:24:18;;;;;;;4.30;3.00;;;24.00;99.90;;;;;;5115280;28;20461;-73
2021/07/30 11:26:45;;;;;;;5.97;2.90;;;23.90;99.90;;;;;;5097807;28;20470;-74
2021/07/30 11:29:14;;;;;;;3.30;3.00;;;24.00;99.90;;;;;;5102793;27;20446;-72
2021/07/30 11:31:53;;;;;;;3.40;3.10;;;24.00;99.90;;;;;;5106014;27;20474;-73
2021/07/30 11:34:21;;;;;;;3.27;2.97;;;23.90;99.90;;;;;;5098361;28;20965;-72
2021/07/30 11:36:49;;;;;;;4.50;3.10;;;23.90;99.90;;;;;;5110511;27;20450;-72
2021/07/30 11:39:17;;;;;;;3.37;3.07;;;23.90;99.90;;;;;;5104803;27;20446;-75
2021/07/30 11:41:49;;;;;;;3.63;3.33;;;23.80;99.90;;;;;;5090613;28;20500;-74
2021/07/30 11:44:17;;;;;;;3.60;2.90;;;23.80;99.90;;;;;;5080629;28;20548;-74
2021/07/30 11:46:53;;;;;;;3.50;3.13;;;23.70;99.90;;;;;;5099729;27;20485;-74
2021/07/30 11:49:29;;;;;;;3.70;3.20;;;23.70;99.90;;;;;;5131361;27;20453;-74
2021/07/30 11:51:56;;;;;;;5.10;3.10;;;23.80;99.90;;;;;;5090271;28;20454;-74
2021/07/30 11:54:25;;;;;;;3.23;2.83;;;23.70;99.90;;;;;;5110667;27;21113;-74
2021/07/30 11:56:53;;;;;;;4.27;3.40;;;23.80;99.90;;;;;;5108094;27;20492;-74
2021/07/30 11:59:20;;;;;;;3.90;3.03;;;23.70;99.90;;;;;;5085381;27;20457;-73
2021/07/30 12:02:03;;;;;;;3.07;2.77;;;23.80;99.90;;;;;;5112731;28;20469;-75
2021/07/30 12:04:32;;;;;;;3.33;3.03;;;23.80;99.90;;;;;;5090381;27;20430;-74
2021/07/30 12:07:06;;;;;;;3.00;2.67;;;23.90;99.90;;;;;;5108891;27;20481;-74
2021/07/30 12:09:34;;;;;;;4.00;3.20;;;23.90;99.90;;;;;;5107786;28;20431;-74
2021/07/30 12:12:03;;;;;;;3.00;2.70;;;23.90;99.90;;;;;;5092255;28;20473;-74
2021/07/30 12:14:33;;;;;;;3.30;3.00;;;23.90;99.90;;;;;;5077792;28;20463;-74
2021/07/30 12:17:00;;;;;;;3.57;3.23;;;23.90;99.90;;;;;;5092384;28;20534;-74
2021/07/30 12:19:29;;;;;;;4.20;3.00;;;23.80;99.90;;;;;;5094214;28;20442;-74
2021/07/30 12:21:59;;;;;;;3.23;2.93;;;23.80;99.90;;;;;;5113439;27;20493;-74
2021/07/30 12:24:27;;;;;;;3.23;2.93;;;23.80;99.90;;;;;;5114725;28;20811;-76
2021/07/30 12:26:54;;;;;;;4.33;3.23;;;23.80;99.90;;;;;;5112341;28;20486;-74
2021/07/30 12:29:37;;;;;;;3.03;2.83;;;23.80;99.90;;;;;;5084278;28;20427;-73
2021/07/30 12:32:14;;;;;;;5.30;3.57;;;23.80;99.90;;;;;;5085074;28;20881;-75
2021/07/30 12:34:40;;;;;;;4.10;3.07;;;23.80;99.90;;;;;;5113819;27;20964;-74
2021/07/30 12:37:10;;;;;;;4.30;3.10;;;23.90;99.90;;;;;;5111567;28;20445;-75
2021/07/30 12:39:46;;;;;;;3.90;3.53;;;23.90;99.90;;;;;;5106634;27;21325;-73
2021/07/30 12:42:21;;;;;;;3.40;3.07;;;23.90;99.90;;;;;;5081213;27;20503;-73
2021/07/30 12:45:06;;;;;;;4.37;3.30;;;24.00;99.90;;;;;;5080259;27;20461;-76
2021/07/30 12:47:34;;;;;;;4.03;3.63;;;24.10;99.90;;;;;;5088468;28;20480;-77
2021/07/30 12:50:21;;;;;;;2.90;2.70;;;24.00;99.90;;;;;;5113069;28;20434;-75
2021/07/30 12:53:07;;;;;;;4.20;3.30;;;23.90;99.90;;;;;;5087520;28;20484;-77
2021/07/30 12:56:03;;;;;;;7.57;3.87;;;23.90;99.90;;;;;;5088699;28;20525;-76